Time;durP1;ratioP1;P1;durP2;ratioP2;P2;SDS_P1;SDS_P2;PMS_P1;PMS_P2;Temp;Humidity;BMP_temperature;BMP_pressure;BME280_temperature;BME280_humidity;BME280_pressure;Samples;Min_cycle;Max_cycle;Signal;HPM_P1;HPM_P2
2023/08/17 00:02:16;;;;;;;;;;;25.40;50.80;;;24.82;49.37;101674.88;12246665;19;19918;-87
2023/08/17 00:06:18;;;;;;;;;;;25.30;50.30;;;24.56;49.17;101637.44;12244207;19;19921;-87
2023/08/17 00:10:19;;;;;;;;;;;25.30;51.10;;;24.69;49.25;101676.09;12244918;19;19926;-87
2023/08/17 00:14:21;;;;;;;;;;;25.20;50.30;;;24.61;49.28;101662.69;12247222;19;20337;-87
2023/08/17 00:18:22;;;;;;;;;;;25.10;50.60;;;24.51;49.61;101657.41;12247112;19;19919;-87
2023/08/17 00:22:24;;;;;;;;;;;25.10;50.40;;;24.37;49.17;101649.06;12247538;19;19919;-87
2023/08/17 00:26:26;;;;;;;;;;;25.10;50.40;;;24.60;49.46;101671.69;12243765;19;19933;-87
2023/08/17 00:30:27;;;;;;;;;;;25.10;50.50;;;24.50;49.29;101662.91;12242770;19;19915;-88
2023/08/17 00:34:29;;;;;;;;;;;25.10;50.60;;;24.56;49.44;101659.63;12244674;19;19923;-88
2023/08/17 00:38:30;;;;;;;;;;;25.00;50.60;;;24.32;49.47;101613.97;12244389;19;20282;-87
2023/08/17 00:42:32;;;;;;;;;;;25.00;50.50;;;24.40;49.39;101636.25;12244686;19;19923;-87
2023/08/17 00:46:33;;;;;;;;;;;24.90;50.30;;;24.38;49.47;101648.06;12237748;19;19922;-87
2023/08/17 00:50:36;;;;;;;;;;;24.90;50.40;;;24.28;49.28;101658.84;12239388;19;19914;-87
2023/08/17 00:54:38;;;;;;;;;;;24.80;50.40;;;24.09;49.49;101633.13;12241953;19;19915;-87
2023/08/17 00:58:39;;;;;;;;;;;24.80;50.40;;;24.01;49.72;101647.22;12254801;19;19911;-88
2023/08/17 01:02:43;;;;;;;;;;;24.70;50.40;;;23.95;49.49;101630.94;12256456;19;19934;-88
2023/08/17 01:06:45;;;;;;;;;;;24.70;50.70;;;24.01;49.78;101657.06;12251039;19;19929;-88
2023/08/17 01:11:05;;;;;;;;;;;24.70;51.30;;;23.96;49.84;101656.66;12250579;19;19918;-88
2023/08/17 01:15:07;;;;;;;;;;;24.60;50.80;;;23.98;49.61;101662.66;12249145;19;19907;-88
2023/08/17 01:19:12;;;;;;;;;;;24.50;51.30;;;23.84;49.88;101643.53;12250839;19;19922;-88
2023/08/17 01:23:15;;;;;;;;;;;24.40;51.30;;;23.73;49.73;101645.53;12250204;19;19998;-88
2023/08/17 01:27:16;;;;;;;;;;;24.40;50.90;;;23.78;49.70;101646.78;12245595;19;20321;-88
2023/08/17 01:31:24;;;;;;;;;;;24.30;50.90;;;23.64;49.69;101626.75;12253193;19;19925;-88
2023/08/17 01:35:37;;;;;;;;;;;24.30;51.20;;;23.64;49.88;101644.56;12252445;19;19921;-88
2023/08/17 01:39:43;;;;;;;;;;;24.10;51.20;;;23.42;50.13;101627.97;12253574;19;19923;-88
2023/08/17 01:43:45;;;;;;;;;;;24.10;51.10;;;23.48;50.05;101644.38;12250804;19;19918;-88
2023/08/17 01:47:49;;;;;;;;;;;24.00;51.10;;;23.19;50.12;101608.81;12246915;19;19929;-88
2023/08/17 01:51:50;;;;;;;;;;;24.00;51.60;;;23.31;50.38;101652.16;12251045;19;19922;-88
2023/08/17 01:55:52;;;;;;;;;;;23.90;51.30;;;23.29;49.78;101653.28;12249346;19;19918;-88
2023/08/17 01:59:54;;;;;;;;;;;23.90;51.50;;;23.33;50.29;101654.66;12251614;19;19914;-88
2023/08/17 02:03:56;;;;;;;;;;;23.80;51.50;;;22.90;49.96;101590.25;12250972;19;19914;-88
2023/08/17 02:07:57;;;;;;;;;;;23.80;51.30;;;23.28;50.37;101655.09;12246110;19;19948;-88
2023/08/17 02:11:59;;;;;;;;;;;23.80;51.20;;;23.31;49.95;101662.81;12250570;19;19970;-88
2023/08/17 02:16:00;;;;;;;;;;;23.80;51.40;;;23.08;49.96;101618.81;12247884;19;20349;-88
2023/08/17 02:20:03;;;;;;;;;;;23.80;52.40;;;23.27;50.37;101656.06;12251230;19;19915;-88
2023/08/17 02:24:06;;;;;;;;;;;23.80;51.30;;;23.23;50.41;101653.84;12252906;19;19926;-88
2023/08/17 02:28:07;;;;;;;;;;;23.80;51.20;;;22.90;50.35;101605.34;12246059;19;19952;-88
2023/08/17 02:32:10;;;;;;;;;;;23.70;51.80;;;23.02;50.56;101619.41;12250143;19;19923;-88
2023/08/17 02:36:11;;;;;;;;;;;23.70;51.80;;;22.68;50.26;101578.09;12247311;19;19932;-88
2023/08/17 02:40:13;;;;;;;;;;;23.60;51.50;;;22.72;50.63;101589.28;12249623;19;19919;-88
2023/08/17 02:44:15;;;;;;;;;;;23.60;52.00;;;22.96;50.54;101624.31;12251137;19;19923;-89
2023/08/17 02:48:16;;;;;;;;;;;23.50;52.10;;;22.84;50.54;101617.44;12245728;19;19923;-87
2023/08/17 02:52:18;;;;;;;;;;;23.50;52.10;;;22.63;50.65;101583.00;12249485;19;19911;-87
2023/08/17 02:56:20;;;;;;;;;;;23.50;51.70;;;22.92;50.79;101624.72;12247389;19;19923;-86
2023/08/17 03:00:23;;;;;;;;;;;23.50;51.60;;;22.68;50.32;101579.91;12248740;19;20405;-86
2023/08/17 03:04:24;;;;;;;;;;;23.50;51.60;;;22.75;50.75;101594.34;12247894;19;19918;-87
2023/08/17 03:08:26;;;;;;;;;;;23.50;52.10;;;22.76;50.59;101601.31;12248041;19;19953;-86
2023/08/17 03:12:28;;;;;;;;;;;23.50;51.80;;;22.85;50.54;101623.63;12245093;19;20026;-86
2023/08/17 03:16:30;;;;;;;;;;;23.40;51.60;;;22.75;50.54;101599.66;12242884;19;19915;-86
2023/08/17 03:20:34;;;;;;;;;;;23.40;51.60;;;22.69;50.48;101590.41;12243096;19;19971;-86
2023/08/17 03:24:35;;;;;;;;;;;23.40;51.90;;;22.75;50.94;101603.16;12244896;19;20361;-87
2023/08/17 03:28:37;;;;;;;;;;;23.40;52.30;;;22.71;51.01;101612.44;12247187;19;20325;-86
2023/08/17 03:32:40;;;;;;;;;;;23.30;52.00;;;22.53;50.67;101593.66;12247847;19;19923;-86
2023/08/17 03:36:42;;;;;;;;;;;23.30;52.10;;;22.41;51.02;101578.81;12246687;19;19917;-86
2023/08/17 03:40:43;;;;;;;;;;;23.30;52.00;;;22.38;50.56;101579.09;12248003;19;20261;-86
2023/08/17 03:44:45;;;;;;;;;;;23.30;51.70;;;22.60;50.70;101614.38;12241015;19;19915;-86
2023/08/17 03:48:46;;;;;;;;;;;23.30;51.90;;;22.54;50.80;101600.66;12244192;19;19923;-86
2023/08/17 03:52:48;;;;;;;;;;;23.20;52.20;;;22.57;50.98;101609.34;12246037;19;20372;-86
2023/08/17 03:56:52;;;;;;;;;;;23.20;51.80;;;22.33;51.14;101570.69;12243839;19;19922;-86
2023/08/17 04:00:54;;;;;;;;;;;23.20;51.90;;;22.57;51.15;101612.84;12245666;19;19922;-87
2023/08/17 04:05:02;;;;;;;;;;;23.20;53.10;;;22.35;50.81;101567.91;12243915;19;20296;-86
2023/08/17 04:09:03;;;;;;;;;;;23.20;52.20;;;22.39;51.27;101572.81;12237317;19;19926;-86
2023/08/17 04:13:05;;;;;;;;;;;23.20;52.20;;;22.46;50.79;101587.22;12236181;19;19957;-87
2023/08/17 04:17:06;;;;;;;;;;;23.10;52.10;;;22.22;51.32;101544.22;12239821;19;20281;-87
2023/08/17 04:21:08;;;;;;;;;;;23.10;52.30;;;22.31;51.35;101570.84;12243646;19;19915;-87
2023/08/17 04:25:09;;;;;;;;;;;23.10;52.30;;;22.40;51.26;101586.94;12244670;19;19907;-87
2023/08/17 04:29:11;;;;;;;;;;;23.10;52.00;;;22.37;51.03;101593.38;12240381;19;19943;-87
2023/08/17 04:33:13;;;;;;;;;;;23.10;53.00;;;22.39;51.21;101602.09;12245447;19;19971;-87
2023/08/17 04:37:15;;;;;;;;;;;23.10;52.10;;;22.34;50.91;101600.81;12249865;19;19937;-87
2023/08/17 04:41:17;;;;;;;;;;;23.10;52.40;;;22.33;51.04;101591.97;12253502;19;19923;-87
2023/08/17 04:45:19;;;;;;;;;;;23.10;52.20;;;22.39;51.07;101604.75;12251556;19;19914;-87
2023/08/17 04:49:21;;;;;;;;;;;23.10;52.00;;;22.19;51.19;101577.25;12251958;19;19923;-87
2023/08/17 04:53:23;;;;;;;;;;;23.10;51.80;;;22.23;51.37;101576.03;12255029;19;19911;-87
2023/08/17 04:57:26;;;;;;;;;;;23.10;52.50;;;22.43;51.50;101614.09;12246035;19;19923;-87
2023/08/17 05:01:27;;;;;;;;;;;23.10;51.90;;;22.43;51.51;101619.44;12252426;19;19914;-87
2023/08/17 05:05:29;;;;;;;;;;;23.10;52.00;;;22.26;51.51;101580.22;12252149;19;19938;-86
2023/08/17 05:09:32;;;;;;;;;;;23.20;52.10;;;22.41;51.22;101618.72;12251400;19;19918;-87
2023/08/17 05:13:35;;;;;;;;;;;23.20;51.90;;;22.34;51.10;101593.66;12254944;19;19929;-87
2023/08/17 05:17:40;;;;;;;;;;;23.20;51.90;;;22.52;51.18;101613.28;12253986;19;20373;-87
2023/08/17 05:21:44;;;;;;;;;;;23.20;52.00;;;22.50;51.51;101603.75;12253372;19;20003;-87
2023/08/17 05:25:47;;;;;;;;;;;23.20;52.20;;;22.52;51.25;101607.97;12246318;19;19930;-86
2023/08/17 05:29:49;;;;;;;;;;;23.20;52.30;;;22.54;51.39;101602.47;12247568;19;19921;-87
2023/08/17 05:33:51;;;;;;;;;;;23.30;52.10;;;22.46;51.40;101583.72;12250822;19;19926;-86
2023/08/17 05:37:54;;;;;;;;;;;23.30;52.10;;;22.36;51.60;101567.75;12247292;19;20249;-87
2023/08/17 05:41:56;;;;;;;;;;;23.30;52.10;;;22.53;51.34;101604.31;12247240;19;19919;-87
2023/08/17 05:46:01;;;;;;;;;;;23.30;52.00;;;22.64;51.39;101610.47;12250384;19;19915;-86
2023/08/17 05:50:03;;;;;;;;;;;23.40;52.10;;;22.67;51.80;101607.53;12240222;19;19933;-85
2023/08/17 05:54:04;;;;;;;;;;;23.40;51.90;;;22.65;51.81;101593.50;12251409;19;19954;-86
2023/08/17 05:58:06;;;;;;;;;;;23.40;52.40;;;22.72;51.45;101613.25;12248244;19;19926;-86
2023/08/17 06:02:07;;;;;;;;;;;23.50;51.90;;;22.76;51.41;101622.63;12249790;19;20252;-86
2023/08/17 06:06:09;;;;;;;;;;;23.50;51.80;;;22.83;51.89;101639.72;12248785;19;19947;-86
2023/08/17 06:10:11;;;;;;;;;;;23.60;51.80;;;22.47;51.99;101572.94;12247548;19;19930;-86
2023/08/17 06:14:13;;;;;;;;;;;23.70;51.80;;;22.85;51.99;101642.28;12250179;19;19919;-86
2023/08/17 06:18:14;;;;;;;;;;;23.80;51.80;;;22.94;51.76;101666.22;12243199;19;19922;-85
2023/08/17 06:22:15;;;;;;;;;;;23.90;51.90;;;23.29;51.97;101714.56;12238502;19;19936;-85
2023/08/17 06:26:17;;;;;;;;;;;24.00;51.70;;;23.36;51.82;101699.69;12246644;19;19950;-86
2023/08/17 06:30:19;;;;;;;;;;;24.10;51.50;;;23.32;51.65;101675.13;12243546;19;19927;-86
2023/08/17 06:34:20;;;;;;;;;;;24.20;51.50;;;23.44;51.49;101689.16;12245594;19;20442;-86
2023/08/17 06:38:21;;;;;;;;;;;24.30;51.30;;;23.30;51.82;101658.44;12238065;19;19946;-85
2023/08/17 06:42:23;;;;;;;;;;;24.30;51.30;;;23.51;51.40;101676.06;12248666;19;19919;-85
2023/08/17 06:46:25;;;;;;;;;;;24.30;51.30;;;23.49;51.50;101684.19;12244022;19;19978;-86
2023/08/17 06:50:27;;;;;;;;;;;24.30;51.40;;;23.50;51.60;101693.91;12244405;19;19915;-85
2023/08/17 06:54:28;;;;;;;;;;;24.40;51.30;;;23.54;51.68;101687.25;12244802;19;19922;-85
2023/08/17 06:58:29;;;;;;;;;;;24.40;51.30;;;23.45;51.36;101679.31;12247593;19;19930;-85
2023/08/17 07:02:31;;;;;;;;;;;24.30;51.20;;;23.47;51.41;101682.69;12244825;19;19919;-85
2023/08/17 07:06:33;;;;;;;;;;;24.30;51.20;;;23.41;51.37;101673.41;12243806;19;19926;-86
2023/08/17 07:10:34;;;;;;;;;;;24.30;51.20;;;23.41;51.48;101676.94;12246465;19;19932;-85
2023/08/17 07:14:37;;;;;;;;;;;24.30;51.20;;;23.42;51.73;101672.44;12244858;19;19940;-86
2023/08/17 07:18:38;;;;;;;;;;;24.30;51.30;;;23.44;51.30;101682.94;12248646;19;19947;-86
2023/08/17 07:22:39;;;;;;;;;;;24.30;51.40;;;23.54;51.49;101691.75;12247078;19;20340;-85
2023/08/17 07:26:41;;;;;;;;;;;24.10;51.40;;;23.17;51.81;101639.28;12244168;19;19940;-85
2023/08/17 07:30:42;;;;;;;;;;;24.30;51.30;;;23.47;51.39;101683.53;12244789;19;19926;-85
2023/08/17 07:34:44;;;;;;;;;;;24.30;51.40;;;23.54;51.37;101694.44;12244101;19;19990;-86
2023/08/17 07:38:45;;;;;;;;;;;24.30;51.40;;;23.49;51.83;101676.19;12245195;19;19922;-86
2023/08/17 07:42:47;;;;;;;;;;;24.30;51.40;;;23.61;51.52;101690.22;12246872;19;20400;-87
2023/08/17 07:46:49;;;;;;;;;;;24.40;51.80;;;23.42;51.36;101651.97;12244254;19;20408;-87
2023/08/17 07:50:51;;;;;;;;;;;24.40;51.50;;;23.66;51.57;101682.59;12240270;19;20288;-87
2023/08/17 07:54:52;;;;;;;;;;;24.40;51.40;;;23.40;51.87;101635.25;12240326;19;19922;-87
2023/08/17 07:58:54;;;;;;;;;;;24.50;51.50;;;23.67;51.62;101673.59;12242969;19;19923;-87
2023/08/17 08:02:55;;;;;;;;;;;24.50;51.40;;;23.69;51.51;101676.97;12240402;19;19919;-87
2023/08/17 08:06:57;;;;;;;;;;;24.50;51.60;;;23.72;51.66;101674.03;12227204;19;19922;-87
2023/08/17 08:10:58;;;;;;;;;;;24.60;51.50;;;23.74;51.32;101672.06;12234649;19;19930;-87
2023/08/17 08:15:00;;;;;;;;;;;24.60;51.40;;;23.82;51.78;101674.84;12231747;19;19922;-87
2023/08/17 08:19:01;;;;;;;;;;;24.70;51.80;;;23.71;51.53;101645.69;12240704;19;20343;-86
2023/08/17 08:23:03;;;;;;;;;;;24.70;51.60;;;23.89;51.75;101656.41;12237004;19;20427;-86
2023/08/17 08:27:04;;;;;;;;;;;24.70;52.00;;;23.92;51.69;101655.25;12237148;19;19923;-87
2023/08/17 08:31:05;;;;;;;;;;;24.80;52.10;;;23.98;52.03;101641.31;12239680;19;19943;-86
2023/08/17 08:35:07;;;;;;;;;;;24.80;51.90;;;24.13;51.57;101653.16;12239588;19;20336;-87
2023/08/17 08:39:10;;;;;;;;;;;24.90;52.10;;;24.27;51.62;101649.13;12241778;19;19922;-85
2023/08/17 08:43:12;;;;;;;;;;;25.00;51.90;;;24.32;51.70;101641.50;12240566;19;19929;-85
2023/08/17 08:47:13;;;;;;;;;;;25.10;51.70;;;24.40;51.80;101646.09;12234137;19;19923;-85
2023/08/17 08:51:16;;;;;;;;;;;25.20;51.90;;;24.54;52.07;101637.56;12230684;19;19927;-86
2023/08/17 08:55:21;;;;;;;;;;;25.30;52.00;;;24.56;52.11;101616.88;12234401;19;19911;-86
2023/08/17 08:59:23;;;;;;;;;;;25.50;52.40;;;24.70;51.87;101612.81;12237595;19;20004;-86
2023/08/17 09:03:26;;;;;;;;;;;25.60;52.20;;;24.87;52.07;101632.47;12240014;19;19915;-85
2023/08/17 09:07:29;;;;;;;;;;;25.60;52.40;;;24.87;52.07;101608.44;12236562;19;20333;-85
2023/08/17 09:11:30;;;;;;;;;;;25.80;52.00;;;24.78;51.71;101569.31;12238325;19;19946;-85
2023/08/17 09:15:32;;;;;;;;;;;25.90;52.00;;;25.11;51.78;101605.06;12238367;19;19915;-89
2023/08/17 09:19:33;;;;;;;;;;;25.90;51.80;;;25.04;51.73;101580.81;12254575;19;19919;-86
2023/08/17 09:23:39;;;;;;;;;;;26.00;52.10;;;25.20;52.02;101601.50;12251190;19;20115;-86
2023/08/17 09:27:41;;;;;;;;;;;26.10;51.90;;;25.23;51.53;101597.66;12246161;19;19922;-86
2023/08/17 09:31:43;;;;;;;;;;;26.10;51.70;;;25.17;51.99;101585.78;12253349;19;19944;-86
2023/08/17 09:35:44;;;;;;;;;;;26.10;51.70;;;25.24;51.48;101594.81;12247952;19;20069;-86
2023/08/17 09:39:45;;;;;;;;;;;26.10;51.80;;;25.27;51.52;101585.63;12253024;19;19919;-87
2023/08/17 09:43:47;;;;;;;;;;;26.20;52.00;;;25.36;51.93;101587.38;12250544;19;19922;-86
2023/08/17 09:47:48;;;;;;;;;;;26.20;51.80;;;25.21;51.46;101557.72;12246522;19;19919;-86
2023/08/17 09:51:52;;;;;;;;;;;26.20;52.00;;;25.33;51.78;101563.59;12249764;19;19915;-86
2023/08/17 09:55:55;;;;;;;;;;;26.20;52.20;;;25.35;51.51;101558.94;12247356;19;20578;-86
2023/08/17 09:59:56;;;;;;;;;;;26.20;52.40;;;25.39;51.50;101560.31;12239910;19;20635;-86
2023/08/17 10:03:59;;;;;;;;;;;26.20;52.60;;;25.32;51.57;101565.44;12246290;19;19923;-86
2023/08/17 10:08:02;;;;;;;;;;;26.20;52.50;;;25.35;51.70;101569.63;12241103;19;19918;-86
2023/08/17 10:12:11;;;;;;;;;;;26.30;52.50;;;25.48;51.69;101569.19;12245015;19;19966;-86
2023/08/17 10:16:19;;;;;;;;;;;26.20;52.80;;;25.46;51.90;101550.59;12221755;19;19977;-86
2023/08/17 10:20:21;;;;;;;;;;;26.30;53.30;;;25.33;51.71;101526.16;12231272;19;19990;-86
2023/08/17 10:24:22;;;;;;;;;;;26.30;52.70;;;25.56;52.09;101566.53;12237801;19;20428;-86
2023/08/17 10:28:24;;;;;;;;;;;26.40;52.90;;;25.64;51.78;101561.22;12241835;19;20305;-88
2023/08/17 10:32:27;;;;;;;;;;;26.40;52.80;;;25.70;51.89;101563.22;12248674;19;20341;-88
2023/08/17 10:36:31;;;;;;;;;;;26.50;52.70;;;25.56;51.73;101529.91;12245063;19;19915;-86
2023/08/17 10:40:37;;;;;;;;;;;26.60;53.10;;;25.82;51.92;101550.38;12250242;19;19943;-86
2023/08/17 10:44:46;;;;;;;;;;;26.60;52.90;;;26.01;51.75;101563.50;12248825;19;19922;-87
2023/08/17 10:48:47;;;;;;;;;;;26.70;53.60;;;26.11;51.97;101549.94;12249512;19;19918;-87
2023/08/17 10:52:50;;;;;;;;;;;26.90;54.00;;;26.29;51.75;101547.09;12255967;19;19923;-87
2023/08/17 10:56:51;;;;;;;;;;;27.00;53.50;;;26.36;51.78;101526.69;12247897;19;20027;-86
2023/08/17 11:00:56;;;;;;;;;;;27.10;53.50;;;26.54;51.95;101539.91;12248360;19;19926;-86
2023/08/17 11:04:58;;;;;;;;;;;27.30;53.40;;;26.63;51.96;101540.75;12248716;19;20535;-87
2023/08/17 11:09:05;;;;;;;;;;;27.40;53.30;;;26.69;51.91;101540.06;12247173;19;19922;-86
2023/08/17 11:13:07;;;;;;;;;;;27.50;53.00;;;26.75;51.99;101533.19;12241981;19;19943;-86
2023/08/17 11:17:09;;;;;;;;;;;27.60;52.80;;;26.83;51.87;101531.31;12246191;19;19941;-87
2023/08/17 11:21:10;;;;;;;;;;;27.70;52.90;;;26.91;51.85;101533.97;12247600;19;19982;-87
2023/08/17 11:25:12;;;;;;;;;;;27.80;52.80;;;26.90;51.90;101537.66;12244218;19;19915;-87
2023/08/17 11:29:13;;;;;;;;;;;27.80;52.70;;;26.87;51.96;101524.59;12239921;19;19915;-87
2023/08/17 11:33:15;;;;;;;;;;;27.90;52.60;;;27.04;51.85;101529.91;12242752;19;19919;-87
2023/08/17 11:37:16;;;;;;;;;;;27.90;52.60;;;27.19;51.76;101538.09;12242734;19;19969;-88
2023/08/17 11:41:19;;;;;;;;;;;28.00;52.60;;;27.24;51.99;101547.28;12243054;19;20286;-87
2023/08/17 11:45:21;;;;;;;;;;;28.00;52.70;;;27.29;52.26;101531.50;12243936;19;19931;-87
2023/08/17 11:49:23;;;;;;;;;;;28.20;52.80;;;27.41;52.01;101541.84;12238655;19;20384;-87
2023/08/17 11:53:32;;;;;;;;;;;28.30;52.80;;;27.53;51.94;101543.94;12243252;19;20370;-88
2023/08/17 11:57:34;;;;;;;;;;;28.40;52.70;;;27.61;51.93;101539.56;12239087;19;19919;-85
2023/08/17 12:01:35;;;;;;;;;;;28.40;52.60;;;27.52;51.49;101520.00;12245517;19;19918;-85
2023/08/17 12:05:37;;;;;;;;;;;28.50;52.60;;;27.61;51.90;101510.03;12244982;19;19929;-86
2023/08/17 12:09:39;;;;;;;;;;;28.60;52.50;;;27.71;51.69;101516.03;12243697;19;19927;-87
2023/08/17 12:13:41;;;;;;;;;;;28.70;52.50;;;27.82;51.63;101512.94;12244188;19;19935;-87
2023/08/17 12:17:47;;;;;;;;;;;28.70;52.50;;;27.98;51.68;101517.38;12242398;19;20325;-87
2023/08/17 12:21:49;;;;;;;;;;;28.80;52.50;;;28.07;51.85;101518.97;12243543;19;19993;-88
2023/08/17 12:25:54;;;;;;;;;;;28.90;52.50;;;28.11;51.69;101506.00;12241483;19;19915;-88
2023/08/17 12:29:56;;;;;;;;;;;29.00;52.40;;;28.14;51.78;101503.81;12240909;19;19946;-88
2023/08/17 12:33:58;;;;;;;;;;;29.10;52.50;;;28.15;51.59;101502.78;12243810;19;19926;-88
2023/08/17 12:37:59;;;;;;;;;;;29.10;52.10;;;28.32;51.61;101511.50;12239232;19;19907;-88
2023/08/17 12:42:01;;;;;;;;;;;29.10;52.20;;;28.29;51.77;101489.56;12245482;19;19929;-88
2023/08/17 12:46:03;;;;;;;;;;;29.20;52.20;;;28.46;51.92;101504.53;12236642;19;19927;-88
2023/08/17 12:50:05;;;;;;;;;;;29.30;52.00;;;28.39;51.65;101482.06;12242898;19;19918;-88
2023/08/17 12:54:06;;;;;;;;;;;29.30;51.80;;;28.24;51.66;101450.63;12255997;19;19935;-87
2023/08/17 12:58:09;;;;;;;;;;;29.30;51.90;;;28.39;51.21;101463.25;12251594;19;19911;-88
2023/08/17 13:02:11;;;;;;;;;;;29.40;51.90;;;28.61;51.56;101481.19;12254770;19;19918;-88
2023/08/17 13:06:13;;;;;;;;;;;29.40;51.50;;;28.68;51.38;101486.66;12243296;19;20305;-86
2023/08/17 13:10:14;;;;;;;;;;;29.50;51.80;;;28.60;51.39;101468.78;12243471;19;20348;-88
2023/08/17 13:14:23;;;;;;;;;;;29.50;51.90;;;28.84;51.32;101496.38;12247433;19;19915;-88
2023/08/17 13:18:25;;;;;;;;;;;29.60;51.80;;;28.80;51.12;101473.59;12236106;19;19926;-88
2023/08/17 13:22:26;;;;;;;;;;;29.60;51.30;;;28.79;51.30;101462.00;12242379;19;19952;-88
2023/08/17 13:26:27;;;;;;;;;;;29.60;51.80;;;28.99;51.45;101474.88;12246412;19;19945;-88
2023/08/17 13:30:28;;;;;;;;;;;29.80;51.80;;;29.07;51.22;101475.63;12242181;19;19978;-88
2023/08/17 13:34:30;;;;;;;;;;;29.80;51.40;;;28.96;51.31;101438.41;12241920;19;19923;-88
2023/08/17 13:38:32;;;;;;;;;;;29.90;51.90;;;28.98;51.12;101427.47;12229404;19;19914;-88
2023/08/17 13:42:34;;;;;;;;;;;30.00;51.20;;;29.25;51.16;101461.75;12243320;19;19947;-88
2023/08/17 13:46:36;;;;;;;;;;;30.00;51.30;;;29.32;51.00;101453.75;12242792;19;19922;-88
2023/08/17 13:50:39;;;;;;;;;;;30.10;51.30;;;29.34;51.39;101449.00;12242814;19;20301;-88
2023/08/17 13:54:41;;;;;;;;;;;30.20;51.40;;;29.49;51.01;101452.50;12245910;19;19918;-88
2023/08/17 13:58:42;;;;;;;;;;;30.30;51.50;;;29.58;51.19;101444.28;12241597;19;19914;-88
2023/08/17 14:02:44;;;;;;;;;;;30.40;51.70;;;29.66;51.12;101436.13;12243444;19;20393;-88
2023/08/17 14:06:45;;;;;;;;;;;30.50;50.60;;;29.77;51.03;101443.66;12246339;19;19919;-88
2023/08/17 14:10:47;;;;;;;;;;;30.50;50.40;;;29.62;50.74;101407.88;12231909;19;19930;-88
2023/08/17 14:14:48;;;;;;;;;;;30.60;50.00;;;29.73;50.76;101423.53;12244442;19;19939;-87
2023/08/17 14:18:50;;;;;;;;;;;30.60;51.00;;;29.86;50.82;101442.50;12242899;19;19919;-87
2023/08/17 14:22:51;;;;;;;;;;;30.60;51.00;;;29.92;50.63;101436.34;12244325;19;19947;-87
2023/08/17 14:26:52;;;;;;;;;;;30.70;51.00;;;29.94;50.74;101428.06;12244090;19;19943;-87
2023/08/17 14:30:54;;;;;;;;;;;30.70;50.80;;;29.99;50.54;101423.75;12241722;19;19935;-87
2023/08/17 14:34:55;;;;;;;;;;;30.80;50.80;;;29.96;50.87;101396.38;12241477;19;19939;-88
2023/08/17 14:38:57;;;;;;;;;;;30.80;49.60;;;30.11;50.46;101424.06;12243877;19;20349;-87
2023/08/17 14:42:58;;;;;;;;;;;30.80;50.70;;;30.05;50.61;101407.81;12249786;19;19929;-88
2023/08/17 14:47:00;;;;;;;;;;;30.90;50.20;;;30.17;50.66;101417.88;12249653;19;20013;-87
2023/08/17 14:51:01;;;;;;;;;;;30.90;50.40;;;30.12;50.61;101398.75;12251226;19;19963;-88
2023/08/17 14:55:04;;;;;;;;;;;30.90;51.00;;;30.22;50.30;101395.72;12251780;19;19923;-88
2023/08/17 14:59:05;;;;;;;;;;;31.00;50.30;;;30.27;50.60;101403.22;12249366;19;19919;-88
2023/08/17 15:03:07;;;;;;;;;;;30.90;50.80;;;30.27;50.32;101401.34;12254339;19;19947;-88
2023/08/17 15:07:12;;;;;;;;;;;31.00;49.90;;;30.23;50.40;101397.41;12251912;19;19922;-88
2023/08/17 15:11:14;;;;;;;;;;;31.00;49.70;;;30.30;50.14;101406.38;12250433;19;19938;-87
2023/08/17 15:15:15;;;;;;;;;;;31.00;50.10;;;30.28;50.31;101404.91;12254082;19;19996;-87
2023/08/17 15:19:16;;;;;;;;;;;31.00;50.30;;;30.28;50.29;101407.59;12247578;19;20404;-88
2023/08/17 15:23:18;;;;;;;;;;;31.00;49.80;;;30.32;50.12;101419.63;12249187;19;20352;-88
2023/08/17 15:27:19;;;;;;;;;;;31.00;50.60;;;30.30;49.88;101408.22;12251734;19;19947;-88
2023/08/17 15:31:21;;;;;;;;;;;31.00;50.80;;;30.40;50.25;101425.69;12246023;19;19919;-87
2023/08/17 15:35:23;;;;;;;;;;;31.00;50.30;;;30.35;50.15;101417.41;12248208;19;19918;-88
2023/08/17 15:39:25;;;;;;;;;;;31.10;50.60;;;30.41;50.14;101419.28;12249229;19;19922;-89
2023/08/17 15:43:27;;;;;;;;;;;31.10;50.60;;;30.34;50.01;101410.31;12242057;19;19922;-87
2023/08/17 15:47:28;;;;;;;;;;;31.10;49.80;;;30.37;49.99;101430.66;12254155;19;19931;-87
2023/08/17 15:51:30;;;;;;;;;;;31.00;50.20;;;30.38;50.07;101419.69;12248333;19;19915;-87
2023/08/17 15:55:32;;;;;;;;;;;31.10;50.10;;;30.32;50.06;101409.69;12255150;19;20298;-87
2023/08/17 15:59:33;;;;;;;;;;;31.10;50.20;;;30.35;50.00;101409.31;12250479;19;20420;-87
2023/08/17 16:03:36;;;;;;;;;;;31.00;50.50;;;30.41;50.02;101410.38;12254979;19;19939;-87
2023/08/17 16:07:37;;;;;;;;;;;31.00;50.50;;;30.45;49.94;101421.59;12249636;19;19933;-87
2023/08/17 16:11:39;;;;;;;;;;;31.10;50.40;;;30.41;49.93;101418.47;12254039;19;19943;-87
2023/08/17 16:15:40;;;;;;;;;;;31.00;50.50;;;30.43;49.82;101424.47;12253175;19;20321;-87
2023/08/17 16:19:42;;;;;;;;;;;31.10;50.80;;;30.47;49.81;101424.91;12249698;19;19915;-88
2023/08/17 16:23:43;;;;;;;;;;;31.00;50.20;;;30.40;49.66;101417.59;12252206;19;19919;-89
2023/08/17 16:27:45;;;;;;;;;;;31.00;49.30;;;30.27;49.63;101414.84;12259162;19;19929;-88
2023/08/17 16:31:58;;;;;;;;;;;31.00;49.20;;;30.24;49.30;101423.31;12262532;19;19911;-88
2023/08/17 16:35:59;;;;;;;;;;;30.90;50.00;;;30.12;49.66;101417.63;12268172;19;19919;-88
2023/08/17 16:40:03;;;;;;;;;;;30.90;50.20;;;29.94;49.17;101391.16;12268609;19;20559;-87
2023/08/17 16:44:05;;;;;;;;;;;30.80;50.30;;;30.02;49.59;101406.34;12266815;19;20286;-88
2023/08/17 16:48:07;;;;;;;;;;;30.70;50.40;;;30.01;49.54;101420.03;12260635;19;19932;-87
2023/08/17 16:52:08;;;;;;;;;;;30.60;50.40;;;29.98;49.63;101423.94;12261373;19;19983;-87
2023/08/17 16:56:09;;;;;;;;;;;30.50;50.40;;;29.93;49.22;101418.31;12263486;19;19926;-87
2023/08/17 17:00:12;;;;;;;;;;;30.50;50.60;;;29.89;49.64;101415.16;12265964;19;19919;-88
2023/08/17 17:04:13;;;;;;;;;;;30.40;50.70;;;29.79;49.58;101403.91;12266830;19;19943;-86
2023/08/17 17:08:15;;;;;;;;;;;30.40;50.60;;;29.82;49.23;101408.09;12262186;19;19957;-88
2023/08/17 17:12:16;;;;;;;;;;;30.30;50.70;;;29.64;49.06;101385.16;12258167;19;19982;-88
2023/08/17 17:16:20;;;;;;;;;;;30.30;50.70;;;29.48;49.17;101372.75;12246319;19;19982;-86
2023/08/17 17:20:22;;;;;;;;;;;30.20;50.70;;;29.68;49.26;101407.97;12249249;19;19922;-88
2023/08/17 17:24:23;;;;;;;;;;;30.20;50.70;;;29.63;49.29;101413.06;12246182;19;20347;-86
2023/08/17 17:28:27;;;;;;;;;;;30.10;50.80;;;29.47;49.55;101387.25;12240256;19;20010;-88
2023/08/17 17:32:29;;;;;;;;;;;30.10;50.70;;;29.57;49.43;101405.78;12248492;19;19919;-90
2023/08/17 17:36:31;;;;;;;;;;;30.00;50.80;;;29.52;49.13;101403.66;12233197;19;19926;-88
2023/08/17 17:40:32;;;;;;;;;;;30.00;50.90;;;29.37;49.14;101392.13;12226366;19;19919;-89
2023/08/17 17:44:34;;;;;;;;;;;30.00;50.90;;;29.49;49.50;101412.13;12248873;19;19910;-86
2023/08/17 17:48:35;;;;;;;;;;;30.00;51.00;;;29.49;49.18;101417.50;12241325;19;19919;-86
2023/08/17 17:52:37;;;;;;;;;;;30.00;51.00;;;29.49;49.58;101428.28;12246026;19;19954;-88
2023/08/17 17:56:42;;;;;;;;;;;30.00;51.10;;;29.45;49.58;101434.22;12238199;19;20402;-89
2023/08/17 18:00:46;;;;;;;;;;;29.90;51.00;;;29.31;49.30;101411.72;12247160;19;19978;-89
2023/08/17 18:04:47;;;;;;;;;;;29.90;51.00;;;29.39;49.34;101443.91;12246890;19;19915;-88
2023/08/17 18:08:49;;;;;;;;;;;29.80;51.00;;;29.36;49.37;101446.97;12240573;19;19915;-87